sensor_id;sensor_type;location;lat;lon;timestamp;temperature;humidity
70336;SHT31;57756;47.408;18.940;2023-10-31T00:02:18;13.09;93.01
70336;SHT31;57756;47.408;18.940;2023-10-31T00:04:45;13.10;92.92
70336;SHT31;57756;47.408;18.940;2023-10-31T00:07:10;13.05;93.70
70336;SHT31;57756;47.408;18.940;2023-10-31T00:09:36;12.99;94.59
70336;SHT31;57756;47.408;18.940;2023-10-31T00:12:05;12.96;93.28
70336;SHT31;57756;47.408;18.940;2023-10-31T00:14:30;12.91;94.08
70336;SHT31;57756;47.408;18.940;2023-10-31T00:16:56;12.86;94.70
70336;SHT31;57756;47.408;18.940;2023-10-31T00:19:21;12.93;93.91
70336;SHT31;57756;47.408;18.940;2023-10-31T00:21:47;12.84;94.57
70336;SHT31;57756;47.408;18.940;2023-10-31T00:24:12;12.86;94.12
70336;SHT31;57756;47.408;18.940;2023-10-31T00:26:38;12.81;94.38
70336;SHT31;57756;47.408;18.940;2023-10-31T00:29:03;12.79;94.11
70336;SHT31;57756;47.408;18.940;2023-10-31T00:31:29;12.76;94.77
70336;SHT31;57756;47.408;18.940;2023-10-31T00:33:54;12.71;94.53
70336;SHT31;57756;47.408;18.940;2023-10-31T00:36:21;12.69;94.59
70336;SHT31;57756;47.408;18.940;2023-10-31T00:38:46;12.64;94.25
70336;SHT31;57756;47.408;18.940;2023-10-31T00:41:12;12.58;94.67
70336;SHT31;57756;47.408;18.940;2023-10-31T00:43:37;12.54;95.02
70336;SHT31;57756;47.408;18.940;2023-10-31T00:46:03;12.62;93.67
70336;SHT31;57756;47.408;18.940;2023-10-31T00:48:29;12.59;93.48
70336;SHT31;57756;47.408;18.940;2023-10-31T00:50:57;12.55;94.90
70336;SHT31;57756;47.408;18.940;2023-10-31T00:53:22;12.54;95.18
70336;SHT31;57756;47.408;18.940;2023-10-31T00:55:48;12.54;94.50
70336;SHT31;57756;47.408;18.940;2023-10-31T00:58:13;12.54;94.61
70336;SHT31;57756;47.408;18.940;2023-10-31T01:00:39;12.58;93.98
70336;SHT31;57756;47.408;18.940;2023-10-31T01:03:05;12.54;94.55
70336;SHT31;57756;47.408;18.940;2023-10-31T01:05:31;12.52;94.67
70336;SHT31;57756;47.408;18.940;2023-10-31T01:07:56;12.51;94.40
70336;SHT31;57756;47.408;18.940;2023-10-31T01:10:22;12.59;93.29
70336;SHT31;57756;47.408;18.940;2023-10-31T01:12:47;12.54;93.88
70336;SHT31;57756;47.408;18.940;2023-10-31T01:15:13;12.51;94.66
70336;SHT31;57756;47.408;18.940;2023-10-31T01:17:38;12.64;93.22
70336;SHT31;57756;47.408;18.940;2023-10-31T01:20:05;12.61;93.32
70336;SHT31;57756;47.408;18.940;2023-10-31T01:22:31;12.57;94.28
70336;SHT31;57756;47.408;18.940;2023-10-31T01:24:56;12.49;94.35
70336;SHT31;57756;47.408;18.940;2023-10-31T01:27:22;12.47;94.12
70336;SHT31;57756;47.408;18.940;2023-10-31T01:29:47;12.51;93.62
70336;SHT31;57756;47.408;18.940;2023-10-31T01:32:13;12.51;94.01
70336;SHT31;57756;47.408;18.940;2023-10-31T01:34:38;12.61;93.02
70336;SHT31;57756;47.408;18.940;2023-10-31T01:37:04;12.62;91.99
70336;SHT31;57756;47.408;18.940;2023-10-31T01:39:29;12.61;92.68
70336;SHT31;57756;47.408;18.940;2023-10-31T01:41:55;12.68;92.27
70336;SHT31;57756;47.408;18.940;2023-10-31T01:44:21;12.67;92.85
70336;SHT31;57756;47.408;18.940;2023-10-31T01:46:46;12.64;93.36
70336;SHT31;57756;47.408;18.940;2023-10-31T01:49:13;12.61;93.73
70336;SHT31;57756;47.408;18.940;2023-10-31T01:51:40;12.64;93.08
70336;SHT31;57756;47.408;18.940;2023-10-31T01:54:06;12.65;93.11
70336;SHT31;57756;47.408;18.940;2023-10-31T01:56:33;12.72;92.66
70336;SHT31;57756;47.408;18.940;2023-10-31T01:58:59;12.71;91.96
70336;SHT31;57756;47.408;18.940;2023-10-31T02:01:25;12.74;92.29
70336;SHT31;57756;47.408;18.940;2023-10-31T02:03:50;12.72;93.31
70336;SHT31;57756;47.408;18.940;2023-10-31T02:06:16;12.82;92.12
70336;SHT31;57756;47.408;18.940;2023-10-31T02:08:41;12.85;91.44
70336;SHT31;57756;47.408;18.940;2023-10-31T02:11:07;12.97;90.26
70336;SHT31;57756;47.408;18.940;2023-10-31T02:13:35;12.99;90.35
70336;SHT31;57756;47.408;18.940;2023-10-31T02:16:01;13.09;90.58
70336;SHT31;57756;47.408;18.940;2023-10-31T02:18:27;13.07;90.60
70336;SHT31;57756;47.408;18.940;2023-10-31T02:20:52;13.03;90.48
70336;SHT31;57756;47.408;18.940;2023-10-31T02:23:18;13.20;89.19
70336;SHT31;57756;47.408;18.940;2023-10-31T02:25:43;13.33;88.76
70336;SHT31;57756;47.408;18.940;2023-10-31T02:28:09;13.27;89.26
70336;SHT31;57756;47.408;18.940;2023-10-31T02:30:34;13.27;89.16
70336;SHT31;57756;47.408;18.940;2023-10-31T02:33:01;13.24;89.67
70336;SHT31;57756;47.408;18.940;2023-10-31T02:35:27;13.32;89.03
70336;SHT31;57756;47.408;18.940;2023-10-31T02:37:52;13.33;89.05
70336;SHT31;57756;47.408;18.940;2023-10-31T02:40:18;13.36;88.54
70336;SHT31;57756;47.408;18.940;2023-10-31T02:42:43;13.50;88.12
70336;SHT31;57756;47.408;18.940;2023-10-31T02:45:09;13.53;87.99
70336;SHT31;57756;47.408;18.940;2023-10-31T02:47:35;13.44;88.64
70336;SHT31;57756;47.408;18.940;2023-10-31T02:50:00;13.48;87.86
70336;SHT31;57756;47.408;18.940;2023-10-31T02:52:26;13.51;87.78
70336;SHT31;57756;47.408;18.940;2023-10-31T02:54:51;13.46;89.25
70336;SHT31;57756;47.408;18.940;2023-10-31T02:57:17;13.40;89.26
70336;SHT31;57756;47.408;18.940;2023-10-31T02:59:42;13.43;88.54
70336;SHT31;57756;47.408;18.940;2023-10-31T03:02:08;13.40;88.82
70336;SHT31;57756;47.408;18.940;2023-10-31T03:04:33;13.37;89.14
70336;SHT31;57756;47.408;18.940;2023-10-31T03:06:59;13.42;88.83
70336;SHT31;57756;47.408;18.940;2023-10-31T03:09:24;13.47;88.27
70336;SHT31;57756;47.408;18.940;2023-10-31T03:11:50;13.47;88.82
70336;SHT31;57756;47.408;18.940;2023-10-31T03:14:15;13.46;89.34
70336;SHT31;57756;47.408;18.940;2023-10-31T03:16:41;13.47;89.61
70336;SHT31;57756;47.408;18.940;2023-10-31T03:19:06;13.47;89.04
70336;SHT31;57756;47.408;18.940;2023-10-31T03:21:32;13.58;88.34
70336;SHT31;57756;47.408;18.940;2023-10-31T03:23:57;13.62;88.16
70336;SHT31;57756;47.408;18.940;2023-10-31T03:26:23;13.64;88.20
70336;SHT31;57756;47.408;18.940;2023-10-31T03:28:48;13.62;89.56
70336;SHT31;57756;47.408;18.940;2023-10-31T03:31:14;13.60;88.60
70336;SHT31;57756;47.408;18.940;2023-10-31T03:33:40;13.58;89.93
70336;SHT31;57756;47.408;18.940;2023-10-31T03:36:07;13.60;88.90
70336;SHT31;57756;47.408;18.940;2023-10-31T03:38:33;13.60;89.52
70336;SHT31;57756;47.408;18.940;2023-10-31T03:40:59;13.53;91.52
70336;SHT31;57756;47.408;18.940;2023-10-31T03:43:25;13.46;92.26
70336;SHT31;57756;47.408;18.940;2023-10-31T03:45:51;13.47;91.65
70336;SHT31;57756;47.408;18.940;2023-10-31T03:48:17;13.43;92.50
70336;SHT31;57756;47.408;18.940;2023-10-31T03:50:43;13.44;92.19
70336;SHT31;57756;47.408;18.940;2023-10-31T03:53:08;13.43;91.47
70336;SHT31;57756;47.408;18.940;2023-10-31T03:55:34;13.39;92.38
70336;SHT31;57756;47.408;18.940;2023-10-31T03:57:59;13.36;92.23
70336;SHT31;57756;47.408;18.940;2023-10-31T04:00:25;13.32;93.01
70336;SHT31;57756;47.408;18.940;2023-10-31T04:02:51;13.28;93.14
70336;SHT31;57756;47.408;18.940;2023-10-31T04:05:16;13.27;94.90
70336;SHT31;57756;47.408;18.940;2023-10-31T04:07:42;13.20;95.15
70336;SHT31;57756;47.408;18.940;2023-10-31T04:10:08;13.19;93.39
70336;SHT31;57756;47.408;18.940;2023-10-31T04:12:34;13.17;94.19
70336;SHT31;57756;47.408;18.940;2023-10-31T04:15:00;13.16;95.73
70336;SHT31;57756;47.408;18.940;2023-10-31T04:17:25;13.13;95.32
70336;SHT31;57756;47.408;18.940;2023-10-31T04:19:51;13.13;93.55
70336;SHT31;57756;47.408;18.940;2023-10-31T04:22:16;13.10;94.54
70336;SHT31;57756;47.408;18.940;2023-10-31T04:24:42;13.10;94.78
70336;SHT31;57756;47.408;18.940;2023-10-31T04:27:08;13.17;93.05
70336;SHT31;57756;47.408;18.940;2023-10-31T04:29:34;13.26;91.39
70336;SHT31;57756;47.408;18.940;2023-10-31T04:31:59;13.26;91.22
70336;SHT31;57756;47.408;18.940;2023-10-31T04:34:25;13.24;92.87
70336;SHT31;57756;47.408;18.940;2023-10-31T04:36:50;13.19;93.05
70336;SHT31;57756;47.408;18.940;2023-10-31T04:39:16;13.26;91.04
70336;SHT31;57756;47.408;18.940;2023-10-31T04:41:41;13.36;90.50
70336;SHT31;57756;47.408;18.940;2023-10-31T04:44:06;13.33;90.58
70336;SHT31;57756;47.408;18.940;2023-10-31T04:46:32;13.32;91.14
70336;SHT31;57756;47.408;18.940;2023-10-31T04:48:58;13.28;91.28
70336;SHT31;57756;47.408;18.940;2023-10-31T04:51:24;13.26;91.42
70336;SHT31;57756;47.408;18.940;2023-10-31T04:53:50;13.26;91.67
70336;SHT31;57756;47.408;18.940;2023-10-31T04:56:15;13.32;89.68
70336;SHT31;57756;47.408;18.940;2023-10-31T04:58:42;13.27;91.56
70336;SHT31;57756;47.408;18.940;2023-10-31T05:01:14;13.27;90.63
70336;SHT31;57756;47.408;18.940;2023-10-31T05:03:39;13.33;89.65
70336;SHT31;57756;47.408;18.940;2023-10-31T05:06:05;13.27;91.16
70336;SHT31;57756;47.408;18.940;2023-10-31T05:08:31;13.28;90.10
70336;SHT31;57756;47.408;18.940;2023-10-31T05:10:58;13.30;90.43
70336;SHT31;57756;47.408;18.940;2023-10-31T05:13:24;13.39;88.86
70336;SHT31;57756;47.408;18.940;2023-10-31T05:15:49;13.47;87.84
70336;SHT31;57756;47.408;18.940;2023-10-31T05:18:16;13.53;88.25
70336;SHT31;57756;47.408;18.940;2023-10-31T05:20:41;13.57;88.13
70336;SHT31;57756;47.408;18.940;2023-10-31T05:23:07;13.58;88.33
70336;SHT31;57756;47.408;18.940;2023-10-31T05:25:33;13.57;87.83
70336;SHT31;57756;47.408;18.940;2023-10-31T05:27:58;13.57;88.89
70336;SHT31;57756;47.408;18.940;2023-10-31T05:30:24;13.50;90.56
70336;SHT31;57756;47.408;18.940;2023-10-31T05:32:50;13.48;89.88
70336;SHT31;57756;47.408;18.940;2023-10-31T05:35:16;13.43;91.54
70336;SHT31;57756;47.408;18.940;2023-10-31T05:37:42;13.40;92.43
70336;SHT31;57756;47.408;18.940;2023-10-31T05:40:08;13.39;90.80
70336;SHT31;57756;47.408;18.940;2023-10-31T05:42:33;13.37;91.60
70336;SHT31;57756;47.408;18.940;2023-10-31T05:44:59;13.34;91.33
70336;SHT31;57756;47.408;18.940;2023-10-31T05:47:25;13.34;91.28
70336;SHT31;57756;47.408;18.940;2023-10-31T05:49:50;13.34;91.86
70336;SHT31;57756;47.408;18.940;2023-10-31T05:52:16;13.28;91.66
70336;SHT31;57756;47.408;18.940;2023-10-31T05:54:41;13.24;92.83
70336;SHT31;57756;47.408;18.940;2023-10-31T05:57:06;13.23;91.96
70336;SHT31;57756;47.408;18.940;2023-10-31T05:59:32;13.24;92.13
70336;SHT31;57756;47.408;18.940;2023-10-31T06:01:58;13.32;91.65
70336;SHT31;57756;47.408;18.940;2023-10-31T06:04:23;13.26;92.94
70336;SHT31;57756;47.408;18.940;2023-10-31T06:06:50;13.20;93.36
70336;SHT31;57756;47.408;18.940;2023-10-31T06:09:16;13.24;92.55
70336;SHT31;57756;47.408;18.940;2023-10-31T06:11:42;13.24;92.26
70336;SHT31;57756;47.408;18.940;2023-10-31T06:14:09;13.37;90.96
70336;SHT31;57756;47.408;18.940;2023-10-31T06:16:40;13.39;92.23
70336;SHT31;57756;47.408;18.940;2023-10-31T06:19:06;13.40;90.72
70336;SHT31;57756;47.408;18.940;2023-10-31T06:21:32;13.37;91.52
70336;SHT31;57756;47.408;18.940;2023-10-31T06:23:57;13.33;92.69
70336;SHT31;57756;47.408;18.940;2023-10-31T06:26:23;13.44;91.28
70336;SHT31;57756;47.408;18.940;2023-10-31T06:28:48;13.42;92.64
70336;SHT31;57756;47.408;18.940;2023-10-31T06:31:14;13.44;92.10
70336;SHT31;57756;47.408;18.940;2023-10-31T06:33:39;13.37;92.75
70336;SHT31;57756;47.408;18.940;2023-10-31T06:36:05;13.43;91.58
70336;SHT31;57756;47.408;18.940;2023-10-31T06:38:31;13.48;91.26
70336;SHT31;57756;47.408;18.940;2023-10-31T06:40:57;13.57;90.30
70336;SHT31;57756;47.408;18.940;2023-10-31T06:43:23;13.53;92.12
70336;SHT31;57756;47.408;18.940;2023-10-31T06:45:48;13.50;92.53
70336;SHT31;57756;47.408;18.940;2023-10-31T06:48:13;13.44;92.81
70336;SHT31;57756;47.408;18.940;2023-10-31T06:50:39;13.46;92.09
70336;SHT31;57756;47.408;18.940;2023-10-31T06:53:04;13.50;92.11
70336;SHT31;57756;47.408;18.940;2023-10-31T06:55:30;13.46;93.27
70336;SHT31;57756;47.408;18.940;2023-10-31T06:57:55;13.44;92.59
70336;SHT31;57756;47.408;18.940;2023-10-31T07:00:21;13.47;93.38
70336;SHT31;57756;47.408;18.940;2023-10-31T07:02:46;13.51;93.60
70336;SHT31;57756;47.408;18.940;2023-10-31T07:05:13;13.50;94.08
70336;SHT31;57756;47.408;18.940;2023-10-31T07:07:39;13.54;93.67
70336;SHT31;57756;47.408;18.940;2023-10-31T07:10:05;13.62;91.69
70336;SHT31;57756;47.408;18.940;2023-10-31T07:12:31;13.74;90.92
70336;SHT31;57756;47.408;18.940;2023-10-31T07:14:56;13.77;92.59
70336;SHT31;57756;47.408;18.940;2023-10-31T07:17:24;13.83;92.37
70336;SHT31;57756;47.408;18.940;2023-10-31T07:19:50;13.99;91.10
70336;SHT31;57756;47.408;18.940;2023-10-31T07:22:15;13.99;93.43
70336;SHT31;57756;47.408;18.940;2023-10-31T07:24:41;14.02;93.52
70336;SHT31;57756;47.408;18.940;2023-10-31T07:27:06;14.04;93.67
70336;SHT31;57756;47.408;18.940;2023-10-31T07:29:32;14.06;92.10
70336;SHT31;57756;47.408;18.940;2023-10-31T07:31:57;14.10;91.34
70336;SHT31;57756;47.408;18.940;2023-10-31T07:34:23;14.13;90.58
70336;SHT31;57756;47.408;18.940;2023-10-31T07:36:48;14.19;90.60
70336;SHT31;57756;47.408;18.940;2023-10-31T07:39:14;14.29;91.72
70336;SHT31;57756;47.408;18.940;2023-10-31T07:41:39;14.34;92.34
70336;SHT31;57756;47.408;18.940;2023-10-31T07:44:06;14.41;93.31
70336;SHT31;57756;47.408;18.940;2023-10-31T07:46:31;14.50;94.54
70336;SHT31;57756;47.408;18.940;2023-10-31T07:48:57;14.61;94.63
70336;SHT31;57756;47.408;18.940;2023-10-31T07:51:23;14.80;94.37
70336;SHT31;57756;47.408;18.940;2023-10-31T07:53:48;14.95;93.60
70336;SHT31;57756;47.408;18.940;2023-10-31T07:56:17;15.36;88.82
70336;SHT31;57756;47.408;18.940;2023-10-31T07:58:43;15.90;87.26
70336;SHT31;57756;47.408;18.940;2023-10-31T08:01:08;16.14;86.21
70336;SHT31;57756;47.408;18.940;2023-10-31T08:03:36;16.35;86.58
70336;SHT31;57756;47.408;18.940;2023-10-31T08:06:05;16.26;85.98
70336;SHT31;57756;47.408;18.940;2023-10-31T08:08:30;16.15;85.65
70336;SHT31;57756;47.408;18.940;2023-10-31T08:10:56;16.08;83.22
70336;SHT31;57756;47.408;18.940;2023-10-31T08:13:24;15.96;85.52
70336;SHT31;57756;47.408;18.940;2023-10-31T08:15:49;15.98;84.35
70336;SHT31;57756;47.408;18.940;2023-10-31T08:18:15;15.97;86.16
70336;SHT31;57756;47.408;18.940;2023-10-31T08:20:40;15.96;85.33
70336;SHT31;57756;47.408;18.940;2023-10-31T08:23:06;16.02;85.39
70336;SHT31;57756;47.408;18.940;2023-10-31T08:25:31;16.02;85.70
70336;SHT31;57756;47.408;18.940;2023-10-31T08:27:57;16.05;85.41
70336;SHT31;57756;47.408;18.940;2023-10-31T08:30:22;16.02;84.28
70336;SHT31;57756;47.408;18.940;2023-10-31T08:32:48;16.00;85.62
70336;SHT31;57756;47.408;18.940;2023-10-31T08:35:13;16.09;84.46
70336;SHT31;57756;47.408;18.940;2023-10-31T08:37:39;16.21;82.89
70336;SHT31;57756;47.408;18.940;2023-10-31T08:40:05;16.25;84.06
70336;SHT31;57756;47.408;18.940;2023-10-31T08:42:30;16.32;83.70
70336;SHT31;57756;47.408;18.940;2023-10-31T08:44:56;16.39;83.27
70336;SHT31;57756;47.408;18.940;2023-10-31T08:47:21;16.42;82.44
70336;SHT31;57756;47.408;18.940;2023-10-31T08:49:47;16.45;82.23
70336;SHT31;57756;47.408;18.940;2023-10-31T08:52:13;16.48;81.88
70336;SHT31;57756;47.408;18.940;2023-10-31T08:54:38;16.53;82.24
70336;SHT31;57756;47.408;18.940;2023-10-31T08:57:04;16.69;80.44
70336;SHT31;57756;47.408;18.940;2023-10-31T08:59:29;16.72;82.16
70336;SHT31;57756;47.408;18.940;2023-10-31T09:01:55;16.76;82.40
70336;SHT31;57756;47.408;18.940;2023-10-31T09:04:21;16.83;79.96
70336;SHT31;57756;47.408;18.940;2023-10-31T09:06:46;16.93;79.52
70336;SHT31;57756;47.408;18.940;2023-10-31T09:09:11;16.97;80.29
70336;SHT31;57756;47.408;18.940;2023-10-31T09:11:38;17.00;80.94
70336;SHT31;57756;47.408;18.940;2023-10-31T09:14:04;17.00;79.34
70336;SHT31;57756;47.408;18.940;2023-10-31T09:16:29;17.07;79.40
70336;SHT31;57756;47.408;18.940;2023-10-31T09:18:55;17.11;79.98
70336;SHT31;57756;47.408;18.940;2023-10-31T09:21:20;17.17;79.39
70336;SHT31;57756;47.408;18.940;2023-10-31T09:23:47;17.27;78.29
70336;SHT31;57756;47.408;18.940;2023-10-31T09:26:12;17.30;79.39
70336;SHT31;57756;47.408;18.940;2023-10-31T09:28:37;17.41;78.67
70336;SHT31;57756;47.408;18.940;2023-10-31T09:31:04;17.45;78.04
70336;SHT31;57756;47.408;18.940;2023-10-31T09:33:30;17.48;77.40
70336;SHT31;57756;47.408;18.940;2023-10-31T09:35:55;17.48;77.82
70336;SHT31;57756;47.408;18.940;2023-10-31T09:38:21;17.49;77.29
70336;SHT31;57756;47.408;18.940;2023-10-31T09:40:46;17.53;78.06
70336;SHT31;57756;47.408;18.940;2023-10-31T09:43:12;17.55;77.30
70336;SHT31;57756;47.408;18.940;2023-10-31T09:45:37;17.62;76.96
70336;SHT31;57756;47.408;18.940;2023-10-31T09:48:03;17.68;77.48
70336;SHT31;57756;47.408;18.940;2023-10-31T09:50:29;17.72;77.70
70336;SHT31;57756;47.408;18.940;2023-10-31T09:52:56;17.79;77.19
70336;SHT31;57756;47.408;18.940;2023-10-31T09:55:22;17.80;76.67
70336;SHT31;57756;47.408;18.940;2023-10-31T09:57:47;17.83;76.41
70336;SHT31;57756;47.408;18.940;2023-10-31T10:00:13;17.87;75.73
70336;SHT31;57756;47.408;18.940;2023-10-31T10:02:40;17.94;75.33
70336;SHT31;57756;47.408;18.940;2023-10-31T10:05:05;17.97;75.00
70336;SHT31;57756;47.408;18.940;2023-10-31T10:07:33;18.03;75.08
70336;SHT31;57756;47.408;18.940;2023-10-31T10:09:59;18.16;74.38
70336;SHT31;57756;47.408;18.940;2023-10-31T10:12:26;18.20;74.89
70336;SHT31;57756;47.408;18.940;2023-10-31T10:14:52;18.25;74.65
70336;SHT31;57756;47.408;18.940;2023-10-31T10:17:22;18.25;74.92
70336;SHT31;57756;47.408;18.940;2023-10-31T10:20:04;18.33;74.48
70336;SHT31;57756;47.408;18.940;2023-10-31T10:22:29;18.37;74.30
70336;SHT31;57756;47.408;18.940;2023-10-31T10:24:55;18.48;73.72
70336;SHT31;57756;47.408;18.940;2023-10-31T10:27:20;18.61;72.68
70336;SHT31;57756;47.408;18.940;2023-10-31T10:29:46;18.75;73.83
70336;SHT31;57756;47.408;18.940;2023-10-31T10:32:12;18.82;73.95
70336;SHT31;57756;47.408;18.940;2023-10-31T10:34:37;18.89;72.25
70336;SHT31;57756;47.408;18.940;2023-10-31T10:37:05;18.86;74.68
70336;SHT31;57756;47.408;18.940;2023-10-31T10:39:32;18.98;72.88
70336;SHT31;57756;47.408;18.940;2023-10-31T10:42:00;19.06;73.78
70336;SHT31;57756;47.408;18.940;2023-10-31T10:44:36;19.07;72.61
70336;SHT31;57756;47.408;18.940;2023-10-31T10:47:06;19.13;73.07
70336;SHT31;57756;47.408;18.940;2023-10-31T10:49:36;19.19;71.05
70336;SHT31;57756;47.408;18.940;2023-10-31T10:52:17;19.19;71.42
70336;SHT31;57756;47.408;18.940;2023-10-31T10:57:42;19.24;72.21
70336;SHT31;57756;47.408;18.940;2023-10-31T11:00:10;19.19;70.78
70336;SHT31;57756;47.408;18.940;2023-10-31T11:02:39;19.20;70.40
70336;SHT31;57756;47.408;18.940;2023-10-31T11:05:08;19.26;70.95
70336;SHT31;57756;47.408;18.940;2023-10-31T11:07:37;19.34;73.32
70336;SHT31;57756;47.408;18.940;2023-10-31T11:10:04;19.35;73.04
70336;SHT31;57756;47.408;18.940;2023-10-31T11:12:31;19.24;73.70
70336;SHT31;57756;47.408;18.940;2023-10-31T11:15:01;19.13;74.54
70336;SHT31;57756;47.408;18.940;2023-10-31T11:17:29;18.99;73.43
70336;SHT31;57756;47.408;18.940;2023-10-31T11:19:56;18.88;75.00
70336;SHT31;57756;47.408;18.940;2023-10-31T11:22:23;18.73;74.07
70336;SHT31;57756;47.408;18.940;2023-10-31T11:24:49;18.65;74.61
70336;SHT31;57756;47.408;18.940;2023-10-31T11:27:16;18.56;74.97
70336;SHT31;57756;47.408;18.940;2023-10-31T11:29:42;18.49;75.15
70336;SHT31;57756;47.408;18.940;2023-10-31T11:32:09;18.44;73.21
70336;SHT31;57756;47.408;18.940;2023-10-31T11:34:37;18.45;75.97
70336;SHT31;57756;47.408;18.940;2023-10-31T11:42:38;18.38;78.39
70336;SHT31;57756;47.408;18.940;2023-10-31T11:45:08;18.38;80.84
70336;SHT31;57756;47.408;18.940;2023-10-31T11:47:50;18.28;78.10
70336;SHT31;57756;47.408;18.940;2023-10-31T11:50:16;18.23;79.97
70336;SHT31;57756;47.408;18.940;2023-10-31T11:52:43;18.17;81.82
70336;SHT31;57756;47.408;18.940;2023-10-31T11:55:12;18.06;83.25
70336;SHT31;57756;47.408;18.940;2023-10-31T11:57:40;18.04;82.23
70336;SHT31;57756;47.408;18.940;2023-10-31T12:00:07;17.99;81.74
70336;SHT31;57756;47.408;18.940;2023-10-31T12:03:05;17.91;83.13
70336;SHT31;57756;47.408;18.940;2023-10-31T12:05:30;17.82;81.75
70336;SHT31;57756;47.408;18.940;2023-10-31T12:07:56;17.75;81.96
70336;SHT31;57756;47.408;18.940;2023-10-31T12:10:27;17.68;83.16
70336;SHT31;57756;47.408;18.940;2023-10-31T12:12:55;17.53;87.72
70336;SHT31;57756;47.408;18.940;2023-10-31T12:15:21;17.15;93.49
70336;SHT31;57756;47.408;18.940;2023-10-31T12:17:48;16.70;95.81
70336;SHT31;57756;47.408;18.940;2023-10-31T12:20:13;16.42;96.54
70336;SHT31;57756;47.408;18.940;2023-10-31T12:22:39;16.17;92.05
70336;SHT31;57756;47.408;18.940;2023-10-31T12:25:07;16.00;93.03
70336;SHT31;57756;47.408;18.940;2023-10-31T12:30:13;15.38;96.28
70336;SHT31;57756;47.408;18.940;2023-10-31T12:32:42;15.14;97.44
70336;SHT31;57756;47.408;18.940;2023-10-31T12:35:11;15.05;98.48
70336;SHT31;57756;47.408;18.940;2023-10-31T12:37:48;15.04;98.22
70336;SHT31;57756;47.408;18.940;2023-10-31T12:40:17;15.02;97.08
70336;SHT31;57756;47.408;18.940;2023-10-31T12:42:43;14.91;98.16
70336;SHT31;57756;47.408;18.940;2023-10-31T12:45:10;14.89;98.13
70336;SHT31;57756;47.408;18.940;2023-10-31T12:47:36;14.87;98.86
70336;SHT31;57756;47.408;18.940;2023-10-31T12:50:13;14.85;99.04
70336;SHT31;57756;47.408;18.940;2023-10-31T12:52:52;14.81;98.54
70336;SHT31;57756;47.408;18.940;2023-10-31T12:55:20;14.91;99.63
70336;SHT31;57756;47.408;18.940;2023-10-31T12:57:46;14.85;99.99
70336;SHT31;57756;47.408;18.940;2023-10-31T13:00:12;14.83;99.99
70336;SHT31;57756;47.408;18.940;2023-10-31T13:02:39;14.78;99.64
70336;SHT31;57756;47.408;18.940;2023-10-31T13:07:34;14.80;99.49
70336;SHT31;57756;47.408;18.940;2023-10-31T13:10:00;14.70;99.71
70336;SHT31;57756;47.408;18.940;2023-10-31T13:12:25;14.73;99.65
70336;SHT31;57756;47.408;18.940;2023-10-31T13:14:53;14.60;99.99
70336;SHT31;57756;47.408;18.940;2023-10-31T13:17:18;14.56;99.70
70336;SHT31;57756;47.408;18.940;2023-10-31T13:19:44;14.57;99.99
70336;SHT31;57756;47.408;18.940;2023-10-31T13:22:09;14.44;99.99
70336;SHT31;57756;47.408;18.940;2023-10-31T13:24:35;14.39;99.99
70336;SHT31;57756;47.408;18.940;2023-10-31T13:27:00;14.33;99.99
70336;SHT31;57756;47.408;18.940;2023-10-31T13:29:28;14.28;99.99
70336;SHT31;57756;47.408;18.940;2023-10-31T13:31:53;14.26;99.99
70336;SHT31;57756;47.408;18.940;2023-10-31T13:34:19;14.15;99.99
70336;SHT31;57756;47.408;18.940;2023-10-31T13:36:44;14.01;99.99
70336;SHT31;57756;47.408;18.940;2023-10-31T13:39:10;13.98;99.99
70336;SHT31;57756;47.408;18.940;2023-10-31T13:41:35;13.94;99.99
70336;SHT31;57756;47.408;18.940;2023-10-31T13:44:01;13.77;99.99
70336;SHT31;57756;47.408;18.940;2023-10-31T13:46:28;13.72;99.99
70336;SHT31;57756;47.408;18.940;2023-10-31T13:48:59;13.55;99.99
70336;SHT31;57756;47.408;18.940;2023-10-31T13:51:24;13.50;99.86
70336;SHT31;57756;47.408;18.940;2023-10-31T13:53:50;13.48;99.27
70336;SHT31;57756;47.408;18.940;2023-10-31T13:56:16;13.39;99.96
70336;SHT31;57756;47.408;18.940;2023-10-31T13:58:42;13.30;99.99
70336;SHT31;57756;47.408;18.940;2023-10-31T14:01:08;13.09;99.87
70336;SHT31;57756;47.408;18.940;2023-10-31T14:03:33;12.97;99.90
70336;SHT31;57756;47.408;18.940;2023-10-31T14:05:59;12.88;99.99
70336;SHT31;57756;47.408;18.940;2023-10-31T14:08:24;12.84;99.99
70336;SHT31;57756;47.408;18.940;2023-10-31T14:10:50;12.79;99.99
70336;SHT31;57756;47.408;18.940;2023-10-31T14:13:17;12.78;99.99
70336;SHT31;57756;47.408;18.940;2023-10-31T14:15:42;12.75;99.99
70336;SHT31;57756;47.408;18.940;2023-10-31T14:18:08;12.68;99.99
70336;SHT31;57756;47.408;18.940;2023-10-31T14:20:33;12.69;99.99
70336;SHT31;57756;47.408;18.940;2023-10-31T14:22:58;12.65;99.99
70336;SHT31;57756;47.408;18.940;2023-10-31T14:25:24;12.75;99.99
70336;SHT31;57756;47.408;18.940;2023-10-31T14:27:49;12.72;99.99
70336;SHT31;57756;47.408;18.940;2023-10-31T14:30:15;12.72;99.99
70336;SHT31;57756;47.408;18.940;2023-10-31T14:32:41;12.71;99.99
70336;SHT31;57756;47.408;18.940;2023-10-31T14:35:07;12.62;99.99
70336;SHT31;57756;47.408;18.940;2023-10-31T14:37:33;12.61;99.99
70336;SHT31;57756;47.408;18.940;2023-10-31T14:40:00;12.58;99.99
70336;SHT31;57756;47.408;18.940;2023-10-31T14:42:25;12.58;99.99
70336;SHT31;57756;47.408;18.940;2023-10-31T14:44:51;12.58;99.99
70336;SHT31;57756;47.408;18.940;2023-10-31T14:47:17;12.58;99.99
70336;SHT31;57756;47.408;18.940;2023-10-31T14:49:44;12.52;99.99
70336;SHT31;57756;47.408;18.940;2023-10-31T14:52:09;12.52;99.99
70336;SHT31;57756;47.408;18.940;2023-10-31T14:54:35;12.55;99.99
70336;SHT31;57756;47.408;18.940;2023-10-31T14:57:03;12.58;99.99
70336;SHT31;57756;47.408;18.940;2023-10-31T14:59:28;12.51;99.99
70336;SHT31;57756;47.408;18.940;2023-10-31T15:01:54;12.44;99.99
70336;SHT31;57756;47.408;18.940;2023-10-31T15:04:19;12.45;99.99
70336;SHT31;57756;47.408;18.940;2023-10-31T15:06:45;12.36;99.99
70336;SHT31;57756;47.408;18.940;2023-10-31T15:09:10;12.40;99.99
70336;SHT31;57756;47.408;18.940;2023-10-31T15:11:36;12.44;99.99
70336;SHT31;57756;47.408;18.940;2023-10-31T15:14:02;12.31;99.99
70336;SHT31;57756;47.408;18.940;2023-10-31T15:16:28;12.31;99.99
70336;SHT31;57756;47.408;18.940;2023-10-31T15:18:53;12.33;99.99
70336;SHT31;57756;47.408;18.940;2023-10-31T15:21:19;12.29;99.99
70336;SHT31;57756;47.408;18.940;2023-10-31T15:23:44;12.38;99.99